createdAt,value
2019-05-26T00:00:31.325Z,100270.84
2019-05-26T00:01:35.793Z,100270.67
2019-05-26T00:02:40.597Z,100268.42
2019-05-26T00:03:45.009Z,100267.51
2019-05-26T00:04:50.034Z,100257.69
2019-05-26T00:05:54.506Z,100264.18
2019-05-26T00:06:59.073Z,100254.02
2019-05-26T00:08:04.445Z,100259.69
2019-05-26T00:09:09.001Z,100261.09
2019-05-26T00:10:13.762Z,100258.02
2019-05-26T00:11:18.382Z,100260.15
2019-05-26T00:12:22.754Z,100261.64
2019-05-26T00:13:27.407Z,100263.22
2019-05-26T00:14:31.939Z,100258.27
2019-05-26T00:15:37.911Z,100257.48
2019-05-26T00:16:42.341Z,100253.58
2019-05-26T00:17:48.093Z,100253.16
2019-05-26T00:18:52.582Z,100250.91
2019-05-26T00:19:57.192Z,100246.29
2019-05-26T00:21:01.610Z,100255.56
2019-05-26T00:22:06.242Z,100249.05
2019-05-26T00:23:10.618Z,100248.84
2019-05-26T00:24:15.237Z,100251.41
2019-05-26T00:25:19.733Z,100247.41
2019-05-26T00:26:24.465Z,100242.09
2019-05-26T00:27:28.910Z,100247.09
2019-05-26T00:28:33.473Z,100250.23
2019-05-26T00:29:37.940Z,100254.55
2019-05-26T00:30:42.661Z,100256.02
2019-05-26T00:31:47.309Z,100249.20
2019-05-26T00:32:52.009Z,100245.24
2019-05-26T00:33:56.523Z,100252.56
2019-05-26T00:35:01.207Z,100245.49
2019-05-26T00:36:05.779Z,100250.11
2019-05-26T00:37:10.325Z,100250.69
2019-05-26T00:38:14.845Z,100246.27
2019-05-26T00:39:19.502Z,100243.19
2019-05-26T00:40:23.950Z,100251.79
2019-05-26T00:41:28.566Z,100244.47
2019-05-26T00:42:33.100Z,100242.80
2019-05-26T00:43:38.714Z,100243.96
2019-05-26T00:44:43.117Z,100240.05
2019-05-26T00:45:48.053Z,100238.64
2019-05-26T00:46:52.454Z,100241.47
2019-05-26T00:47:57.010Z,100240.37
2019-05-26T00:49:01.585Z,100237.30
2019-05-26T00:50:07.784Z,100238.20
2019-05-26T00:51:12.297Z,100247.34
2019-05-26T00:52:16.891Z,100237.48
2019-05-26T00:53:21.423Z,100241.73
2019-05-26T00:54:26.072Z,100238.32
2019-05-26T00:55:30.448Z,100243.47
2019-05-26T00:56:35.024Z,100236.73
2019-05-26T00:57:39.513Z,100246.03
2019-05-26T00:58:44.069Z,100243.47
2019-05-26T00:59:48.454Z,100236.91
2019-05-26T01:00:53.013Z,100236.91
2019-05-26T01:01:57.481Z,100239.48
2019-05-26T01:03:02.117Z,100243.77
2019-05-26T01:04:06.490Z,100238.58
2019-05-26T01:05:11.187Z,100247.56
2019-05-26T01:06:15.590Z,100243.58
2019-05-26T01:07:20.259Z,100244.99
2019-05-26T01:08:24.893Z,100236.84
2019-05-26T01:09:29.484Z,100243.33
2019-05-26T01:10:33.972Z,100241.77
2019-05-26T01:11:38.875Z,100248.39
2019-05-26T01:12:43.490Z,100253.79
2019-05-26T01:13:48.201Z,100245.89
2019-05-26T01:14:52.569Z,100251.61
2019-05-26T01:15:57.137Z,100244.88
2019-05-26T01:17:01.607Z,100246.28
2019-05-26T01:18:06.603Z,100247.13
2019-05-26T01:19:11.156Z,100248.28
2019-05-26T01:20:15.795Z,100250.44
2019-05-26T01:21:20.376Z,100253.02
2019-05-26T01:22:25.003Z,100252.03
2019-05-26T01:23:29.409Z,100242.02
2019-05-26T01:24:34.175Z,100252.55
2019-05-26T01:25:38.562Z,100247.00
2019-05-26T01:26:43.125Z,100248.09
2019-05-26T01:27:47.637Z,100255.16
2019-05-26T01:28:52.205Z,100254.83
2019-05-26T01:29:56.682Z,100252.01
2019-05-26T01:31:01.311Z,100249.31
2019-05-26T01:32:05.836Z,100247.84
2019-05-26T01:33:10.394Z,100246.36
2019-05-26T01:34:14.812Z,100252.55
2019-05-26T01:35:19.340Z,100253.13
2019-05-26T01:36:23.884Z,100254.00
2019-05-26T01:37:28.609Z,100255.41
2019-05-26T01:38:33.244Z,100251.75
2019-05-26T01:39:37.806Z,100252.07
2019-05-26T01:40:45.095Z,100255.22
2019-05-26T01:41:49.866Z,100254.26
2019-05-26T01:42:54.394Z,100257.66
2019-05-26T01:43:58.957Z,100257.66
2019-05-26T01:45:04.001Z,100259.91
2019-05-26T01:46:08.557Z,100259.33
2019-05-26T01:47:12.932Z,100264.17
2019-05-26T01:48:17.634Z,100257.76
2019-05-26T01:49:22.012Z,100260.00
2019-05-26T01:50:26.569Z,100261.98
2019-05-26T01:51:31.162Z,100269.17
2019-05-26T01:52:35.723Z,100262.11
2019-05-26T01:53:40.213Z,100259.39
2019-05-26T01:54:44.810Z,100261.70
2019-05-26T01:55:49.194Z,100263.23
2019-05-26T01:56:53.822Z,100258.36
2019-05-26T01:57:58.202Z,100263.48
2019-05-26T01:59:03.166Z,100260.67
2019-05-26T02:00:07.610Z,100260.09
2019-05-26T02:01:12.537Z,100262.85
2019-05-26T02:02:16.986Z,100258.88
2019-05-26T02:03:21.544Z,100263.36
2019-05-26T02:04:26.042Z,100255.16
2019-05-26T02:05:30.602Z,100259.77
2019-05-26T02:06:34.978Z,100264.27
2019-05-26T02:07:39.681Z,100262.02
2019-05-26T02:08:44.058Z,100260.03
2019-05-26T02:09:48.795Z,100264.97
2019-05-26T02:10:53.389Z,100262.17
2019-05-26T02:11:58.267Z,100263.00
2019-05-26T02:13:02.634Z,100269.77
2019-05-26T02:14:07.194Z,100262.00
2019-05-26T02:15:11.572Z,100262.06
2019-05-26T02:16:16.102Z,100265.30
2019-05-26T02:17:20.525Z,100269.78
2019-05-26T02:18:25.101Z,100262.47
2019-05-26T02:19:29.478Z,100268.23
2019-05-26T02:20:34.216Z,100266.83
2019-05-26T02:21:38.606Z,100267.59
2019-05-26T02:22:43.275Z,100270.22
2019-05-26T02:23:47.658Z,100264.37
2019-05-26T02:24:52.227Z,100261.84
2019-05-26T02:25:56.666Z,100262.97
2019-05-26T02:27:01.298Z,100261.56
2019-05-26T02:28:05.875Z,100265.50
2019-05-26T02:29:11.545Z,100261.56
2019-05-26T02:30:15.939Z,100259.34
2019-05-26T02:31:20.849Z,100259.41
2019-05-26T02:32:25.223Z,100256.64
2019-05-26T02:33:29.810Z,100255.63
2019-05-26T02:34:34.331Z,100255.63
2019-05-26T02:35:38.958Z,100269.65
2019-05-26T02:36:43.359Z,100266.59
2019-05-26T02:37:48.040Z,100258.11
2019-05-26T02:39:02.145Z,100267.14
2019-05-26T02:39:58.836Z,100267.66
2019-05-26T02:41:03.477Z,100267.98
2019-05-26T02:42:08.026Z,100264.09
2019-05-26T02:43:13.625Z,100264.78
2019-05-26T02:44:18.211Z,100267.02
2019-05-26T02:45:22.689Z,100266.71
2019-05-26T02:46:27.253Z,100263.43
2019-05-26T02:47:31.673Z,100264.60
2019-05-26T02:48:36.294Z,100261.00
2019-05-26T02:49:40.690Z,100266.02
2019-05-26T02:50:46.443Z,100261.76
2019-05-26T02:51:50.817Z,100262.91
2019-05-26T02:52:55.541Z,100263.20
2019-05-26T02:53:59.918Z,100258.11
2019-05-26T02:55:06.117Z,100266.51
2019-05-26T02:56:10.591Z,100258.88
2019-05-26T02:57:15.360Z,100257.22
2019-05-26T02:58:20.870Z,100262.59
2019-05-26T02:59:25.545Z,100248.32
2019-05-26T03:00:42.811Z,100260.92
2019-05-26T03:02:02.577Z,100263.48
2019-05-26T03:02:53.569Z,100262.08
2019-05-26T03:03:58.169Z,100254.48
2019-05-26T03:05:02.697Z,100260.43
2019-05-26T03:06:08.357Z,100259.02
2019-05-26T03:07:12.708Z,100259.59
2019-05-26T03:08:17.431Z,100253.95
2019-05-26T03:09:23.778Z,100252.29
2019-05-26T03:10:28.632Z,100256.27
2019-05-26T03:11:33.053Z,100257.98
2019-05-26T03:12:39.815Z,100259.19
2019-05-26T03:13:44.314Z,100257.23
2019-05-26T03:14:49.000Z,100255.09
2019-05-26T03:15:53.357Z,100263.97
2019-05-26T03:16:58.572Z,100262.27
2019-05-26T03:18:06.493Z,100254.70
2019-05-26T03:19:11.044Z,100255.20
2019-05-26T03:20:15.614Z,100263.63
2019-05-26T03:21:20.849Z,100267.30
2019-05-26T03:22:25.324Z,100262.22
2019-05-26T03:23:31.698Z,100268.13
2019-05-26T03:24:36.168Z,100260.19
2019-05-26T03:25:40.821Z,100261.59
2019-05-26T03:26:45.220Z,100260.40
2019-05-26T03:27:49.847Z,100259.82
2019-05-26T03:28:54.286Z,100261.75
2019-05-26T03:29:58.865Z,100265.09
2019-05-26T03:31:03.369Z,100257.47
2019-05-26T03:32:08.036Z,100259.17
2019-05-26T03:33:12.562Z,100261.67
2019-05-26T03:34:17.425Z,100260.27
2019-05-26T03:35:21.793Z,100253.48
2019-05-26T03:36:26.422Z,100253.74
2019-05-26T03:37:30.871Z,100255.16
2019-05-26T03:38:35.612Z,100255.16
2019-05-26T03:39:45.159Z,100257.14
2019-05-26T03:40:46.458Z,100261.42
2019-05-26T03:41:50.889Z,100251.00
2019-05-26T03:42:56.524Z,100259.45
2019-05-26T03:44:00.990Z,100258.36
2019-05-26T03:45:07.092Z,100258.41
2019-05-26T03:46:14.768Z,100255.59
2019-05-26T03:47:20.115Z,100255.33
2019-05-26T03:48:24.541Z,100248.03
2019-05-26T03:49:29.139Z,100256.22
2019-05-26T03:50:33.701Z,100262.17
2019-05-26T03:51:38.585Z,100261.34
2019-05-26T03:52:42.962Z,100264.16
2019-05-26T03:53:47.639Z,100271.20
2019-05-26T03:54:51.973Z,100265.30
2019-05-26T03:55:56.562Z,100265.88
2019-05-26T03:57:01.025Z,100264.20
2019-05-26T03:58:05.658Z,100265.64
2019-05-26T03:59:10.025Z,100263.39
2019-05-26T04:00:14.870Z,100268.20
2019-05-26T04:01:19.253Z,100268.45
2019-05-26T04:02:23.885Z,100269.08
2019-05-26T04:03:28.263Z,100265.23
2019-05-26T04:04:32.813Z,100264.95
2019-05-26T04:05:37.200Z,100269.48
2019-05-26T04:06:41.991Z,100268.08
2019-05-26T04:07:46.448Z,100262.99
2019-05-26T04:08:51.097Z,100265.23
2019-05-26T04:10:04.910Z,100273.69
2019-05-26T04:11:01.921Z,100264.95
2019-05-26T04:12:06.324Z,100271.70
2019-05-26T04:13:10.889Z,100272.83
2019-05-26T04:14:15.272Z,100262.11
2019-05-26T04:15:19.838Z,100274.50
2019-05-26T04:16:24.210Z,100270.30
2019-05-26T04:17:30.258Z,100271.16
2019-05-26T04:18:34.645Z,100271.73
2019-05-26T04:19:39.196Z,100274.27
2019-05-26T04:20:46.004Z,100263.83
2019-05-26T04:21:49.841Z,100264.92
2019-05-26T04:22:54.261Z,100268.31
2019-05-26T04:23:58.809Z,100266.34
2019-05-26T04:25:04.662Z,100267.74
2019-05-26T04:26:09.223Z,100265.22
2019-05-26T04:27:13.610Z,100269.44
2019-05-26T04:28:18.365Z,100270.02
2019-05-26T04:29:22.790Z,100268.61
2019-05-26T04:30:28.421Z,100272.52
2019-05-26T04:31:32.798Z,100273.63
2019-05-26T04:32:37.367Z,100278.11
2019-05-26T04:33:41.733Z,100270.75
2019-05-26T04:34:46.356Z,100271.84
2019-05-26T04:35:50.725Z,100269.34
2019-05-26T04:36:55.308Z,100268.45
2019-05-26T04:37:59.682Z,100267.36
2019-05-26T04:39:06.981Z,100276.91
2019-05-26T04:40:25.555Z,100272.94
2019-05-26T04:41:17.802Z,100277.17
2019-05-26T04:42:22.180Z,100272.68
2019-05-26T04:43:26.753Z,100279.72
2019-05-26T04:44:31.114Z,100278.84
2019-05-26T04:45:35.839Z,100276.58
2019-05-26T04:46:40.236Z,100277.98
2019-05-26T04:47:45.876Z,100277.67
2019-05-26T04:48:51.226Z,100284.72
2019-05-26T04:49:55.791Z,100279.08
2019-05-26T04:51:00.250Z,100280.54
2019-05-26T04:52:05.533Z,100286.70
2019-05-26T04:53:10.878Z,100285.23
2019-05-26T04:54:15.439Z,100287.42
2019-05-26T04:55:19.821Z,100290.19
2019-05-26T04:56:25.418Z,100291.86
2019-05-26T04:57:30.296Z,100290.81
2019-05-26T04:58:34.864Z,100295.56
2019-05-26T04:59:40.215Z,100287.38
2019-05-26T05:00:44.858Z,100295.67
2019-05-26T05:01:49.238Z,100294.33
2019-05-26T05:02:53.874Z,100292.07
2019-05-26T05:03:58.251Z,100288.37
2019-05-26T05:05:03.033Z,100293.42
2019-05-26T05:06:07.421Z,100295.46
2019-05-26T05:07:11.987Z,100296.82
2019-05-26T05:08:16.446Z,100296.82
2019-05-26T05:09:21.006Z,100295.15
2019-05-26T05:10:39.434Z,100290.11
2019-05-26T05:11:31.760Z,100293.48
2019-05-26T05:12:36.138Z,100296.88
2019-05-26T05:13:40.707Z,100298.85
2019-05-26T05:14:45.181Z,100296.89
2019-05-26T05:15:49.755Z,100302.50
2019-05-26T05:16:54.261Z,100298.80
2019-05-26T05:17:58.900Z,100303.23
2019-05-26T05:19:03.424Z,100302.67
2019-05-26T05:20:08.044Z,100309.66
2019-05-26T05:21:12.462Z,100299.95
2019-05-26T05:22:17.058Z,100307.25
2019-05-26T05:23:21.521Z,100307.00
2019-05-26T05:24:26.159Z,100305.27
2019-05-26T05:25:30.575Z,100307.98
2019-05-26T05:26:35.174Z,100312.22
2019-05-26T05:27:39.650Z,100315.55
2019-05-26T05:28:44.222Z,100306.77
2019-05-26T05:29:48.674Z,100306.66
2019-05-26T05:30:53.364Z,100310.27
2019-05-26T05:31:57.773Z,100308.26
2019-05-26T05:33:02.561Z,100310.77
2019-05-26T05:34:07.025Z,100318.41
2019-05-26T05:35:11.774Z,100310.77
2019-05-26T05:36:16.158Z,100310.50
2019-05-26T05:37:20.760Z,100312.95
2019-05-26T05:38:25.187Z,100308.67
2019-05-26T05:39:29.928Z,100315.72
2019-05-26T05:40:34.311Z,100314.57
2019-05-26T05:41:38.918Z,100314.31
2019-05-26T05:42:43.326Z,100314.83
2019-05-26T05:43:48.083Z,100311.67
2019-05-26T05:44:52.468Z,100315.27
2019-05-26T05:45:57.047Z,100315.64
2019-05-26T05:47:02.468Z,100316.11
2019-05-26T05:48:07.163Z,100305.03
2019-05-26T05:49:12.691Z,100311.45
2019-05-26T05:50:17.614Z,100304.64
2019-05-26T05:51:23.138Z,100306.57
2019-05-26T05:52:27.826Z,100308.18
2019-05-26T05:53:32.420Z,100307.03
2019-05-26T05:54:37.163Z,100312.33
2019-05-26T05:55:41.588Z,100305.53
2019-05-26T05:56:46.381Z,100305.22
2019-05-26T05:57:51.242Z,100306.25
2019-05-26T05:58:55.867Z,100304.78
2019-05-26T06:00:00.638Z,100298.73
2019-05-26T06:01:05.223Z,100302.74
2019-05-26T06:02:09.710Z,100305.53
2019-05-26T06:03:14.418Z,100300.73
2019-05-26T06:04:18.817Z,100302.85
2019-05-26T06:05:23.481Z,100307.95
2019-05-26T06:06:27.895Z,100305.30
2019-05-26T06:07:32.522Z,100297.61
2019-05-26T06:08:36.992Z,100302.94
2019-05-26T06:09:41.631Z,100303.05
2019-05-26T06:10:46.166Z,100302.22
2019-05-26T06:11:54.430Z,100300.17
2019-05-26T06:13:04.700Z,100300.31
2019-05-26T06:14:09.263Z,100303.62
2019-05-26T06:15:15.607Z,100294.19
2019-05-26T06:16:20.057Z,100295.86
2019-05-26T06:17:24.570Z,100295.00
2019-05-26T06:18:29.275Z,100295.00
2019-05-26T06:19:33.672Z,100299.39
2019-05-26T06:20:38.340Z,100294.45
2019-05-26T06:21:42.826Z,100296.30
2019-05-26T06:22:47.472Z,100298.01
2019-05-26T06:23:51.991Z,100303.27
2019-05-26T06:24:56.559Z,100301.21
2019-05-26T06:26:01.399Z,100296.20
2019-05-26T06:27:06.062Z,100290.68
2019-05-26T06:28:10.720Z,100287.17
2019-05-26T06:29:15.407Z,100300.33
2019-05-26T06:30:19.936Z,100294.03
2019-05-26T06:31:24.786Z,100292.26
2019-05-26T06:32:30.061Z,100293.60
2019-05-26T06:33:34.722Z,100294.44
2019-05-26T06:34:39.146Z,100292.62
2019-05-26T06:35:43.741Z,100293.71
2019-05-26T06:36:48.623Z,100293.89
2019-05-26T06:37:53.367Z,100295.81
2019-05-26T06:38:57.692Z,100297.48
2019-05-26T06:40:02.472Z,100292.02
2019-05-26T06:41:06.851Z,100288.25
2019-05-26T06:42:13.075Z,100285.27
2019-05-26T06:43:17.896Z,100286.03
2019-05-26T06:44:22.481Z,100287.08
2019-05-26T06:45:26.999Z,100282.52
2019-05-26T06:46:31.757Z,100291.50
2019-05-26T06:47:36.217Z,100290.59
2019-05-26T06:48:40.790Z,100286.61
2019-05-26T06:49:45.433Z,100286.03
2019-05-26T06:50:50.070Z,100290.48
2019-05-26T06:51:54.445Z,100289.82
2019-05-26T06:52:59.005Z,100287.17
2019-05-26T06:54:03.434Z,100289.02
2019-05-26T06:55:08.023Z,100292.75
2019-05-26T06:56:12.400Z,100287.68
2019-05-26T06:57:17.181Z,100290.77
2019-05-26T06:58:21.533Z,100296.62
2019-05-26T06:59:26.097Z,100295.06
2019-05-26T07:00:30.770Z,100290.66
2019-05-26T07:01:35.330Z,100291.45
2019-05-26T07:02:39.901Z,100299.28
2019-05-26T07:03:44.463Z,100292.30
2019-05-26T07:04:48.840Z,100287.61
2019-05-26T07:05:53.589Z,100287.73
2019-05-26T07:06:57.969Z,100291.77
2019-05-26T07:08:02.614Z,100294.55
2019-05-26T07:09:07.413Z,100297.43
2019-05-26T07:10:11.925Z,100296.36
2019-05-26T07:11:16.434Z,100301.39
2019-05-26T07:12:20.961Z,100297.72
2019-05-26T07:13:25.482Z,100304.39
2019-05-26T07:14:30.174Z,100303.97
2019-05-26T07:15:34.584Z,100299.68
2019-05-26T07:16:40.276Z,100299.68
2019-05-26T07:17:44.726Z,100301.21
2019-05-26T07:18:49.439Z,100301.37
2019-05-26T07:19:53.868Z,100298.37
2019-05-26T07:20:58.433Z,100298.91
2019-05-26T07:22:04.433Z,100301.46
2019-05-26T07:23:09.571Z,100304.73
2019-05-26T07:24:14.655Z,100306.57
2019-05-26T07:25:19.214Z,100307.16
2019-05-26T07:26:23.735Z,100301.94
2019-05-26T07:27:28.346Z,100304.26
2019-05-26T07:28:33.058Z,100304.75
2019-05-26T07:29:37.711Z,100301.59
2019-05-26T07:30:42.171Z,100304.66
2019-05-26T07:31:46.808Z,100299.78
2019-05-26T07:32:51.182Z,100300.47
2019-05-26T07:33:55.748Z,100300.97
2019-05-26T07:35:00.373Z,100301.46
2019-05-26T07:36:05.098Z,100298.32
2019-05-26T07:37:09.470Z,100290.48
2019-05-26T07:38:14.096Z,100302.99
2019-05-26T07:39:18.532Z,100298.56
2019-05-26T07:40:23.138Z,100300.05
2019-05-26T07:41:27.514Z,100295.79
2019-05-26T07:42:32.102Z,100296.81
2019-05-26T07:43:36.526Z,100295.05
2019-05-26T07:44:41.374Z,100292.38
2019-05-26T07:45:45.823Z,100284.05
2019-05-26T07:46:50.864Z,100295.89
2019-05-26T07:47:55.751Z,100296.44
2019-05-26T07:49:00.413Z,100296.97
2019-05-26T07:50:08.833Z,100292.43
2019-05-26T07:51:13.466Z,100287.19
2019-05-26T07:52:17.993Z,100293.36
2019-05-26T07:53:22.685Z,100286.91
2019-05-26T07:54:27.039Z,100290.81
2019-05-26T07:55:31.782Z,100289.64
2019-05-26T07:56:36.220Z,100291.73
2019-05-26T07:57:40.790Z,100292.41
2019-05-26T07:58:45.328Z,100293.83
2019-05-26T07:59:49.977Z,100292.66
2019-05-26T08:00:54.703Z,100295.08
2019-05-26T08:01:59.339Z,100291.23
2019-05-26T08:03:04.257Z,100293.42
2019-05-26T08:04:08.887Z,100262.14
2019-05-26T08:05:13.260Z,100287.70
2019-05-26T08:06:17.879Z,100293.20
2019-05-26T08:07:23.220Z,100293.11
2019-05-26T08:08:27.953Z,100288.51
2019-05-26T08:09:32.351Z,100286.33
2019-05-26T08:10:37.023Z,100286.58
2019-05-26T08:11:41.653Z,100284.23
2019-05-26T08:12:46.234Z,100285.78
2019-05-26T08:13:50.615Z,100286.77
2019-05-26T08:14:55.251Z,100273.02
2019-05-26T08:15:59.620Z,100273.02
2019-05-26T08:17:05.939Z,100277.94
2019-05-26T08:18:10.335Z,100281.16
2019-05-26T08:19:15.006Z,100279.98
2019-05-26T08:20:19.407Z,100275.79
2019-05-26T08:21:24.057Z,100273.78
2019-05-26T08:22:28.700Z,100277.48
2019-05-26T08:23:33.332Z,100275.33
2019-05-26T08:24:37.906Z,100283.44
2019-05-26T08:25:42.842Z,100279.49
2019-05-26T08:26:47.408Z,100281.84
2019-05-26T08:27:52.389Z,100277.13
2019-05-26T08:28:56.777Z,100279.16
2019-05-26T08:30:01.485Z,100274.37
2019-05-26T08:31:05.901Z,100274.40
2019-05-26T08:32:10.444Z,100275.81
2019-05-26T08:33:14.905Z,100272.98
2019-05-26T08:34:19.550Z,100271.37
2019-05-26T08:35:23.963Z,100277.42
2019-05-26T08:36:28.615Z,100269.19
2019-05-26T08:37:32.962Z,100270.27
2019-05-26T08:38:38.915Z,100265.53
2019-05-26T08:39:43.346Z,100266.50
2019-05-26T08:40:49.161Z,100264.25
2019-05-26T08:41:53.590Z,100263.66
2019-05-26T08:42:58.360Z,100264.41
2019-05-26T08:44:02.813Z,100265.02
2019-05-26T08:45:07.441Z,100259.96
2019-05-26T08:46:11.819Z,100258.83
2019-05-26T08:47:16.528Z,100255.78
2019-05-26T08:48:20.941Z,100259.10
2019-05-26T08:49:26.577Z,100257.69
2019-05-26T08:50:34.162Z,100260.77
2019-05-26T08:51:37.318Z,100261.36
2019-05-26T08:52:41.856Z,100260.66
2019-05-26T08:53:46.444Z,100264.84
2019-05-26T08:54:50.823Z,100259.62
2019-05-26T08:55:55.379Z,100264.37
2019-05-26T08:57:00.009Z,100262.75
2019-05-26T08:58:06.116Z,100256.23
2019-05-26T08:59:10.573Z,100252.11
2019-05-26T09:00:16.761Z,100257.09
2019-05-26T09:01:21.137Z,100252.61
2019-05-26T09:02:25.790Z,100259.25
2019-05-26T09:03:31.273Z,100256.67
2019-05-26T09:04:35.848Z,100257.14
2019-05-26T09:05:40.222Z,100256.45
2019-05-26T09:06:44.777Z,100255.53
2019-05-26T09:07:49.242Z,100254.09
2019-05-26T09:08:53.879Z,100253.63
2019-05-26T09:09:58.366Z,100249.23
2019-05-26T09:11:02.942Z,100254.45
2019-05-26T09:12:07.398Z,100251.73
2019-05-26T09:13:11.958Z,100249.09
2019-05-26T09:14:16.497Z,100249.57
2019-05-26T09:15:21.132Z,100251.47
2019-05-26T09:16:25.646Z,100241.98
2019-05-26T09:17:30.389Z,100250.75
2019-05-26T09:18:34.955Z,100251.47
2019-05-26T09:19:39.705Z,100247.58
2019-05-26T09:20:44.089Z,100249.94
2019-05-26T09:21:48.713Z,100248.03
2019-05-26T09:22:53.081Z,100253.52
2019-05-26T09:23:57.640Z,100245.67
2019-05-26T09:25:02.167Z,100241.51
2019-05-26T09:26:06.869Z,100245.20
2019-05-26T09:27:11.238Z,100244.02
2019-05-26T09:28:16.758Z,100237.13
2019-05-26T09:29:21.132Z,100236.05
2019-05-26T09:30:25.809Z,100230.13
2019-05-26T09:31:30.317Z,100237.70
2019-05-26T09:32:34.942Z,100233.45
2019-05-26T09:33:39.334Z,100233.56
2019-05-26T09:34:43.894Z,100237.36
2019-05-26T09:35:48.352Z,100231.31
2019-05-26T09:36:52.937Z,100232.02
2019-05-26T09:37:57.329Z,100232.38
2019-05-26T09:39:01.884Z,100231.91
2019-05-26T09:40:08.553Z,100225.97
2019-05-26T09:41:13.365Z,100225.14
2019-05-26T09:42:17.768Z,100221.55
2019-05-26T09:43:22.336Z,100231.06
2019-05-26T09:44:26.776Z,100216.36
2019-05-26T09:45:31.385Z,100225.02
2019-05-26T09:46:35.755Z,100221.83
2019-05-26T09:47:40.409Z,100230.95
2019-05-26T09:48:44.920Z,100222.52
2019-05-26T09:49:49.614Z,100227.51
2019-05-26T09:50:53.992Z,100230.00
2019-05-26T09:51:58.612Z,100224.30
2019-05-26T09:53:03.010Z,100220.63
2019-05-26T09:54:07.589Z,100227.46
2019-05-26T09:55:12.004Z,100215.72
2019-05-26T09:56:16.633Z,100224.08
2019-05-26T09:57:21.006Z,100213.64
2019-05-26T09:58:25.564Z,100221.47
2019-05-26T09:59:30.007Z,100224.89
2019-05-26T10:00:34.600Z,100222.06
2019-05-26T10:01:39.210Z,100226.44
2019-05-26T10:02:43.830Z,100224.53
2019-05-26T10:03:48.181Z,100219.06
2019-05-26T10:04:52.825Z,100228.80
2019-05-26T10:05:57.229Z,100223.70
2019-05-26T10:07:01.884Z,100220.95
2019-05-26T10:08:06.324Z,100225.36
2019-05-26T10:09:10.948Z,100222.63
2019-05-26T10:10:15.328Z,100228.93
2019-05-26T10:11:19.880Z,100221.22
2019-05-26T10:12:24.277Z,100219.06
2019-05-26T10:13:31.875Z,100220.36
2019-05-26T10:14:34.935Z,100218.13
2019-05-26T10:15:39.488Z,100216.93
2019-05-26T10:16:43.931Z,100216.11
2019-05-26T10:17:48.512Z,100202.81
2019-05-26T10:18:52.969Z,100213.96
2019-05-26T10:19:57.521Z,100213.94
2019-05-26T10:21:02.724Z,100213.58
2019-05-26T10:22:07.316Z,100221.08
2019-05-26T10:23:12.049Z,100200.86
2019-05-26T10:24:16.612Z,100222.23
2019-05-26T10:25:20.977Z,100204.73
2019-05-26T10:26:25.530Z,100211.26
2019-05-26T10:27:30.278Z,100211.39
2019-05-26T10:28:34.842Z,100211.95
2019-05-26T10:29:39.249Z,100212.78
2019-05-26T10:30:43.881Z,100212.68
2019-05-26T10:31:48.386Z,100201.73
2019-05-26T10:32:53.693Z,100197.96
2019-05-26T10:33:58.145Z,100200.55
2019-05-26T10:35:02.748Z,100204.45
2019-05-26T10:36:08.318Z,100199.62
2019-05-26T10:37:12.865Z,100196.50
2019-05-26T10:38:17.340Z,100199.94
2019-05-26T10:39:21.889Z,100198.61
2019-05-26T10:40:26.280Z,100195.89
2019-05-26T10:41:30.985Z,100181.86
2019-05-26T10:42:35.377Z,100195.06
2019-05-26T10:43:47.239Z,100192.44
2019-05-26T10:44:46.141Z,100190.79
2019-05-26T10:45:50.773Z,100180.66
2019-05-26T10:46:55.209Z,100187.15
2019-05-26T10:47:59.785Z,100189.77
2019-05-26T10:49:04.374Z,100184.97
2019-05-26T10:50:09.437Z,100188.05
2019-05-26T10:51:13.927Z,100185.25
2019-05-26T10:52:18.466Z,100185.25
2019-05-26T10:53:23.056Z,100181.44
2019-05-26T10:54:27.682Z,100184.23
2019-05-26T10:55:32.096Z,100182.13
2019-05-26T10:56:36.653Z,100184.76
2019-05-26T10:57:41.121Z,100180.60
2019-05-26T10:58:45.747Z,100182.11
2019-05-26T10:59:50.121Z,100179.69
2019-05-26T11:00:54.700Z,100179.08
2019-05-26T11:01:59.140Z,100176.22
2019-05-26T11:03:03.705Z,100170.74
2019-05-26T11:04:08.142Z,100171.56
2019-05-26T11:05:12.782Z,100173.00
2019-05-26T11:06:18.632Z,100168.34
2019-05-26T11:07:26.651Z,100162.57
2019-05-26T11:08:29.434Z,100168.28
2019-05-26T11:09:34.040Z,100163.19
2019-05-26T11:10:38.426Z,100155.70
2019-05-26T11:11:43.092Z,100154.74
2019-05-26T11:12:47.508Z,100157.23
2019-05-26T11:14:02.590Z,100155.78
2019-05-26T11:14:58.230Z,100154.70
2019-05-26T11:16:02.782Z,100160.63
2019-05-26T11:17:07.197Z,100153.77
2019-05-26T11:18:12.237Z,100158.73
2019-05-26T11:19:16.680Z,100158.73
2019-05-26T11:20:21.376Z,100154.05
2019-05-26T11:21:25.807Z,100147.75
2019-05-26T11:22:30.365Z,100142.70
2019-05-26T11:23:34.956Z,100146.33
2019-05-26T11:24:39.652Z,100153.92
2019-05-26T11:25:44.314Z,100142.16
2019-05-26T11:26:49.269Z,100134.27
2019-05-26T11:27:53.801Z,100135.16
2019-05-26T11:28:58.440Z,100142.83
2019-05-26T11:30:02.832Z,100139.44
2019-05-26T11:31:07.461Z,100139.77
2019-05-26T11:32:11.829Z,100139.77
2019-05-26T11:33:16.454Z,100134.52
2019-05-26T11:34:20.849Z,100140.23
2019-05-26T11:35:25.400Z,100129.03
2019-05-26T11:36:29.776Z,100130.17
2019-05-26T11:37:34.334Z,100121.11
2019-05-26T11:38:38.709Z,100122.55
2019-05-26T11:39:43.409Z,100121.34
2019-05-26T11:40:48.063Z,100125.63
2019-05-26T11:41:54.810Z,100121.00
2019-05-26T11:42:58.707Z,100114.20
2019-05-26T11:44:17.025Z,100115.41
2019-05-26T11:45:09.417Z,100113.15
2019-05-26T11:46:16.596Z,100114.20
2019-05-26T11:47:20.160Z,100112.70
2019-05-26T11:48:24.716Z,100115.97
2019-05-26T11:49:29.080Z,100117.95
2019-05-26T11:50:33.706Z,100117.36
2019-05-26T11:51:38.103Z,100114.77
2019-05-26T11:52:42.728Z,100113.98
2019-05-26T11:53:47.101Z,100113.87
2019-05-26T11:54:51.742Z,100108.05
2019-05-26T11:55:56.375Z,100119.35
2019-05-26T11:57:01.017Z,100110.89
2019-05-26T11:58:05.516Z,100120.73
2019-05-26T11:59:10.101Z,100118.52
2019-05-26T12:00:16.007Z,100108.53
2019-05-26T12:01:23.123Z,100108.49
2019-05-26T12:02:26.812Z,100113.68
2019-05-26T12:03:31.373Z,100113.59
2019-05-26T12:04:35.745Z,100104.09
2019-05-26T12:05:40.300Z,100107.06
2019-05-26T12:06:44.798Z,100100.68
2019-05-26T12:07:49.374Z,100101.73
2019-05-26T12:08:53.749Z,100098.31
2019-05-26T12:09:59.505Z,100107.58
2019-05-26T12:11:03.830Z,100112.03
2019-05-26T12:12:08.384Z,100100.36
2019-05-26T12:13:12.950Z,100096.12
2019-05-26T12:14:33.031Z,100104.47
2019-05-26T12:15:23.849Z,100099.33
2019-05-26T12:16:29.027Z,100099.85
2019-05-26T12:17:33.568Z,100082.68
2019-05-26T12:18:38.121Z,100088.47